createdAt,value
2018-11-04T00:01:33.097Z,92.03
2018-11-04T00:06:37.914Z,92.59
2018-11-04T00:11:43.307Z,92.71
2018-11-04T00:16:48.023Z,92.60
2018-11-04T00:21:52.673Z,92.82
2018-11-04T00:26:57.209Z,92.79
2018-11-04T00:32:01.566Z,93.29
2018-11-04T00:37:09.464Z,93.01
2018-11-04T00:42:23.394Z,93.12
2018-11-04T00:47:29.739Z,93.59
2018-11-04T00:52:34.994Z,93.77
2018-11-04T00:57:40.242Z,94.29
2018-11-04T01:02:46.003Z,94.60
2018-11-04T01:07:51.482Z,94.65
2018-11-04T01:12:55.984Z,94.23
2018-11-04T01:18:00.815Z,94.58
2018-11-04T01:23:13.079Z,94.07
2018-11-04T01:28:18.903Z,94.13
2018-11-04T01:33:27.666Z,94.51
2018-11-04T01:38:33.029Z,95.07
2018-11-04T01:43:39.104Z,94.88
2018-11-04T01:48:44.604Z,94.82
2018-11-04T01:53:49.001Z,94.72
2018-11-04T01:58:53.577Z,94.48
2018-11-04T02:03:59.593Z,94.40
2018-11-04T02:09:04.492Z,94.83
2018-11-04T02:14:09.833Z,94.89
2018-11-04T02:19:15.838Z,95.03
2018-11-04T02:24:20.123Z,95.00
2018-11-04T02:29:24.523Z,94.99
2018-11-04T02:34:29.017Z,95.07
2018-11-04T02:39:34.079Z,94.99
2018-11-04T02:44:39.428Z,95.04
2018-11-04T02:49:44.195Z,95.54
2018-11-04T02:54:48.608Z,95.39
2018-11-04T02:59:52.999Z,95.55
2018-11-04T03:10:30.076Z,95.49
2018-11-04T03:15:34.507Z,95.74
2018-11-04T03:20:38.803Z,95.99
2018-11-04T03:25:43.163Z,96.12
2018-11-04T03:30:47.632Z,95.84
2018-11-04T03:35:52.251Z,95.92
2018-11-04T03:40:58.694Z,95.85
2018-11-04T03:46:03.847Z,96.22
2018-11-04T03:51:08.333Z,96.33
2018-11-04T03:56:12.831Z,95.97
2018-11-04T04:01:17.364Z,95.87
2018-11-04T04:06:22.396Z,96.29
2018-11-04T04:11:26.600Z,96.33
2018-11-04T04:16:30.859Z,96.47
2018-11-04T04:21:35.643Z,96.54
2018-11-04T04:26:41.437Z,96.70
2018-11-04T04:31:47.037Z,96.63
2018-11-04T04:36:52.389Z,96.36
2018-11-04T04:41:57.138Z,96.82
2018-11-04T04:47:01.639Z,96.50
2018-11-04T04:57:38.203Z,96.59
2018-11-04T05:02:42.986Z,96.37
2018-11-04T05:07:47.834Z,96.89
2018-11-04T05:12:52.007Z,96.90
2018-11-04T05:17:57.188Z,96.81
2018-11-04T05:23:07.715Z,96.37
2018-11-04T05:28:13.995Z,96.66
2018-11-04T05:33:22.049Z,96.60
2018-11-04T05:38:27.832Z,96.82
2018-11-04T05:43:32.215Z,96.66
2018-11-04T05:48:37.348Z,96.90
2018-11-04T05:53:42.739Z,96.67
2018-11-04T05:58:46.970Z,96.86
2018-11-04T06:03:51.357Z,96.95
2018-11-04T06:08:56.845Z,96.84
2018-11-04T06:14:01.381Z,97.04
2018-11-04T06:19:06.176Z,96.64
2018-11-04T06:24:11.007Z,97.37
2018-11-04T06:29:15.373Z,97.34
2018-11-04T06:34:33.166Z,97.40
2018-11-04T06:39:37.406Z,97.08
2018-11-04T06:44:42.449Z,97.62
2018-11-04T06:49:47.879Z,97.42
2018-11-04T06:54:52.371Z,97.04
2018-11-04T06:59:57.232Z,97.04
2018-11-04T07:05:01.564Z,97.05
2018-11-04T07:10:07.725Z,96.64
2018-11-04T07:15:12.021Z,96.90
2018-11-04T07:20:16.253Z,96.12
2018-11-04T07:25:21.196Z,96.56
2018-11-04T07:30:26.259Z,96.65
2018-11-04T07:35:30.701Z,96.63
2018-11-04T07:40:35.075Z,96.83
2018-11-04T07:45:39.473Z,96.68
2018-11-04T07:50:44.319Z,96.91
2018-11-04T07:55:49.000Z,97.16
2018-11-04T08:00:53.655Z,97.06
2018-11-04T08:05:58.069Z,97.02
2018-11-04T08:11:03.502Z,96.85
2018-11-04T08:16:08.007Z,96.41
2018-11-04T08:21:12.814Z,96.53
2018-11-04T08:26:18.785Z,96.34
2018-11-04T08:31:23.916Z,97.17
2018-11-04T08:36:28.452Z,96.98
2018-11-04T08:41:38.070Z,96.97
2018-11-04T08:46:42.807Z,96.78
2018-11-04T08:51:53.583Z,97.07
2018-11-04T08:56:58.205Z,96.43
2018-11-04T09:02:02.856Z,96.61
2018-11-04T09:07:07.564Z,96.11
2018-11-04T09:12:12.245Z,96.37
2018-11-04T09:17:16.777Z,96.61
2018-11-04T09:22:21.707Z,96.53
2018-11-04T09:27:26.121Z,96.57
2018-11-04T09:32:30.654Z,96.20
2018-11-04T09:37:35.507Z,96.08
2018-11-04T09:42:47.274Z,96.13
2018-11-04T09:47:52.385Z,96.01
2018-11-04T09:52:57.654Z,95.84
2018-11-04T09:58:03.943Z,95.62
2018-11-04T10:03:10.197Z,95.50
2018-11-04T10:08:15.450Z,95.20
2018-11-04T10:13:23.069Z,95.78
2018-11-04T10:18:31.132Z,95.67
2018-11-04T10:29:14.081Z,95.75
2018-11-04T10:34:19.494Z,95.57
2018-11-04T10:39:24.897Z,95.48
2018-11-04T10:44:35.260Z,95.59
2018-11-04T10:49:50.949Z,95.99
2018-11-04T10:54:56.634Z,95.45
2018-11-04T11:00:07.126Z,95.17
2018-11-04T11:05:14.391Z,95.22
2018-11-04T11:10:22.967Z,94.81
2018-11-04T11:15:46.202Z,95.03
2018-11-04T11:20:50.770Z,94.29
2018-11-04T11:31:35.601Z,94.36
2018-11-04T11:36:44.217Z,94.60
2018-11-04T11:41:48.924Z,94.73
2018-11-04T11:52:13.537Z,95.47
2018-11-04T11:57:18.391Z,95.49
2018-11-04T12:02:41.022Z,95.01
2018-11-04T12:07:45.670Z,94.80
2018-11-04T12:12:51.026Z,95.34
2018-11-04T12:17:55.964Z,94.85
2018-11-04T12:33:42.712Z,95.44
2018-11-04T12:38:49.100Z,95.35
2018-11-04T12:49:35.466Z,95.46
2018-11-04T12:54:52.098Z,95.44
2018-11-04T12:59:57.787Z,95.23
2018-11-04T13:05:03.422Z,95.14
2018-11-04T13:10:10.185Z,95.12
2018-11-04T13:15:15.856Z,95.17
2018-11-04T13:20:21.034Z,95.37
2018-11-04T13:25:44.242Z,95.32
2018-11-04T13:30:50.810Z,95.33
2018-11-04T13:36:09.384Z,95.52
2018-11-04T13:41:15.194Z,95.26
2018-11-04T13:46:19.807Z,96.29
2018-11-04T13:51:33.960Z,95.40
2018-11-04T13:56:43.052Z,95.33
2018-11-04T14:02:07.904Z,95.29
2018-11-04T14:12:55.575Z,95.17
2018-11-04T14:18:18.499Z,95.52
2018-11-04T14:23:33.177Z,95.97
2018-11-04T14:28:46.853Z,96.19
2018-11-04T15:06:31.889Z,97.11
2018-11-04T15:11:45.423Z,97.54
2018-11-04T15:17:17.677Z,97.80
2018-11-04T15:22:32.884Z,97.99
2018-11-04T15:27:42.574Z,98.21
2018-11-04T15:38:22.755Z,97.85
2018-11-04T15:43:38.174Z,97.96
2018-11-04T15:54:27.077Z,97.29
2018-11-04T15:59:34.866Z,97.86
2018-11-04T16:04:44.551Z,98.43
2018-11-04T16:09:59.151Z,98.55
2018-11-04T16:15:04.245Z,98.77
2018-11-04T16:20:12.687Z,99.14
2018-11-04T16:25:23.120Z,99.28
2018-11-04T16:30:40.349Z,98.72
2018-11-04T16:35:48.604Z,99.30
2018-11-04T16:40:57.838Z,99.73
2018-11-04T16:46:28.403Z,99.50
2018-11-04T16:57:21.419Z,99.60
2018-11-04T17:02:45.381Z,99.12
2018-11-04T17:08:00.708Z,99.41
2018-11-04T17:34:49.100Z,100.00
2018-11-04T17:39:57.048Z,99.69
2018-11-04T17:45:05.993Z,100.00
2018-11-04T17:50:18.167Z,100.00
2018-11-04T17:55:23.254Z,100.00
2018-11-04T18:00:28.733Z,100.00
2018-11-04T18:05:33.517Z,100.00
2018-11-04T18:10:39.553Z,100.00
2018-11-04T18:15:45.821Z,100.00
2018-11-04T18:20:56.290Z,100.00
2018-11-04T18:26:08.130Z,100.00
2018-11-04T18:31:14.981Z,100.00
2018-11-04T18:36:37.983Z,100.00
2018-11-04T18:52:56.405Z,100.00
2018-11-04T19:09:02.902Z,100.00
2018-11-04T19:14:08.728Z,100.00
2018-11-04T19:24:28.286Z,100.00
2018-11-04T19:29:35.315Z,100.00
2018-11-04T19:34:42.757Z,100.00
2018-11-04T19:39:54.487Z,100.00
2018-11-04T19:45:04.031Z,100.00
2018-11-04T19:50:28.035Z,100.00
2018-11-04T20:14:15.396Z,100.00
2018-11-04T20:19:27.925Z,100.00
2018-11-04T20:30:21.040Z,100.00
2018-11-04T20:35:41.573Z,100.00
2018-11-04T20:41:14.858Z,100.00
2018-11-04T20:46:42.860Z,100.00
2018-11-04T21:03:01.850Z,100.00
2018-11-04T21:08:35.476Z,100.00
2018-11-04T21:14:10.196Z,100.00
2018-11-04T21:19:21.896Z,100.00
2018-11-04T21:24:35.752Z,100.00
2018-11-04T21:29:42.041Z,100.00
2018-11-04T21:34:55.521Z,100.00
2018-11-04T21:40:01.501Z,100.00
2018-11-04T21:45:13.341Z,100.00
2018-11-04T21:50:19.564Z,100.00
2018-11-04T21:55:29.528Z,100.00
2018-11-04T22:00:34.954Z,100.00
2018-11-04T22:05:53.306Z,100.00
2018-11-04T22:10:58.952Z,100.00
2018-11-04T22:16:05.693Z,100.00
2018-11-04T22:21:10.436Z,100.00
2018-11-04T22:26:20.326Z,100.00
2018-11-04T22:31:29.286Z,100.00
2018-11-04T22:36:34.558Z,100.00
2018-11-04T22:41:40.169Z,100.00
2018-11-04T22:46:45.326Z,100.00
2018-11-04T22:51:55.001Z,100.00
2018-11-04T22:57:00.670Z,100.00
2018-11-04T23:02:05.315Z,100.00
2018-11-04T23:07:09.701Z,100.00
2018-11-04T23:12:14.093Z,100.00
2018-11-04T23:17:18.812Z,100.00
2018-11-04T23:22:23.339Z,100.00
2018-11-04T23:27:28.092Z,100.00
2018-11-04T23:32:32.399Z,100.00
2018-11-04T23:37:36.863Z,100.00
2018-11-04T23:42:41.457Z,100.00
2018-11-04T23:47:46.394Z,100.00
2018-11-04T23:52:51.035Z,100.00
2018-11-04T23:57:55.590Z,100.00
